PWSweather.com
Personal Weather Stations
Station Observations
NORMANDBO
StavernNO

StavernNO

Lat: 58.97132, Lon: 9.93657

Elevation: 33

Station Type: Davis Vantage Pro 2

http://normandbo.com

Latest ConditionsUpdated 4:00:02 PM GMT+01:01 Wednesday, Nov 21, 2018
Currently Today's Max Today's Min Today's Average
Temperature 36.7°F2.6°C 37.9°F3.3°C 32.4°F0.2°C 36.1°F2.3°C
Dew Point 34.2°F1.2°C 35.8°F2.1°C 27.9°F-2.3°C 32.3°F0.2°C
Winds 2.0 mph N3.2 kmh N 7.0 mph -11.3 kmh - - 3.5 mph 5.6 kmh
Wind Gusts 9.0 mph14.5 kmh 19.0 mph30.6 kmh - -
Humidity 91% 92% 83% 86%
Pressure 30.52 in1033.5 mb 30.54 in1034.2 mb 30.48 in1032.2 mb -
Hour Temp Dew Point Humidity Winds Wind Gusts Pressure Precip Precip Rate Daily Precip Total
04:00 PM 36.7°F2.6°C 34.2°F1.2°C 91% 2.0 mph N3.2 kmh N 9.0 mph14.5 kmh 30.52 in1033.5 mb 0.00 in0.0 mm 0.00 in0.0 mm 0.00 in0.0 mm
03:55 PM 36.7°F2.6°C 34.2°F1.2°C 91% 2.0 mph N3.2 kmh N 8.0 mph12.9 kmh 30.52 in1033.5 mb 0.00 in0.0 mm 0.00 in0.0 mm 0.00 in0.0 mm
03:50 PM 36.7°F2.6°C 34.3°F1.3°C 91% 2.0 mph N3.2 kmh N 9.0 mph14.5 kmh 30.52 in1033.5 mb 0.00 in0.0 mm 0.00 in0.0 mm 0.00 in0.0 mm
03:45 PM 36.7°F2.6°C 34.3°F1.3°C 91% 3.0 mph N4.8 kmh N 9.0 mph14.5 kmh 30.52 in1033.5 mb 0.00 in0.0 mm 0.00 in0.0 mm 0.00 in0.0 mm
03:40 PM 36.7°F2.6°C 34.2°F1.2°C 91% 4.0 mph N6.4 kmh N 12.0 mph19.3 kmh 30.52 in1033.5 mb 0.00 in0.0 mm 0.00 in0.0 mm 0.00 in0.0 mm
03:35 PM 36.7°F2.6°C 34.2°F1.2°C 91% 4.0 mph N6.4 kmh N 12.0 mph19.3 kmh 30.52 in1033.5 mb 0.00 in0.0 mm 0.00 in0.0 mm 0.00 in0.0 mm
03:30 PM 36.7°F2.6°C 34.2°F1.2°C 91% 2.0 mph N3.2 kmh N 8.0 mph12.9 kmh 30.52 in1033.5 mb 0.00 in0.0 mm 0.00 in0.0 mm 0.00 in0.0 mm
03:25 PM 36.7°F2.6°C 34.2°F1.2°C 91% 2.0 mph N3.2 kmh N 8.0 mph12.9 kmh 30.52 in1033.5 mb 0.00 in0.0 mm 0.00 in0.0 mm 0.00 in0.0 mm
03:20 PM 36.5°F2.5°C 34.2°F1.2°C 91% 1.0 mph N1.6 kmh N 8.0 mph12.9 kmh 30.52 in1033.5 mb 0.00 in0.0 mm 0.00 in0.0 mm 0.00 in0.0 mm
03:15 PM 36.5°F2.5°C 34.2°F1.2°C 91% 1.0 mph N1.6 kmh N 7.0 mph11.3 kmh 30.52 in1033.5 mb 0.00 in0.0 mm 0.00 in0.0 mm 0.00 in0.0 mm
03:10 PM 36.5°F2.5°C 34.2°F1.2°C 91% 2.0 mph N3.2 kmh N 8.0 mph12.9 kmh 30.52 in1033.5 mb 0.00 in0.0 mm 0.00 in0.0 mm 0.00 in0.0 mm
03:05 PM 36.7°F2.6°C 34.2°F1.2°C 91% 2.0 mph N3.2 kmh N 8.0 mph12.9 kmh 30.52 in1033.5 mb 0.00 in0.0 mm 0.00 in0.0 mm 0.00 in0.0 mm
03:00 PM 36.9°F2.7°C 34.3°F1.3°C 91% 2.0 mph N3.2 kmh N 8.0 mph12.9 kmh 30.52 in1033.5 mb 0.00 in0.0 mm 0.00 in0.0 mm 0.00 in0.0 mm
02:55 PM 36.9°F2.7°C 34.2°F1.2°C 90% 3.0 mph N4.8 kmh N 9.0 mph14.5 kmh 30.52 in1033.5 mb 0.00 in0.0 mm 0.00 in0.0 mm 0.00 in0.0 mm
02:50 PM 37.0°F2.8°C 34.3°F1.3°C 90% 3.0 mph N4.8 kmh N 9.0 mph14.5 kmh 30.52 in1033.5 mb 0.00 in0.0 mm 0.00 in0.0 mm 0.00 in0.0 mm
02:45 PM 37.2°F2.9°C 34.5°F1.4°C 90% 2.0 mph N3.2 kmh N 9.0 mph14.5 kmh 30.52 in1033.5 mb 0.00 in0.0 mm 0.00 in0.0 mm 0.00 in0.0 mm
02:40 PM 37.4°F3.0°C 34.7°F1.5°C 90% 2.0 mph N3.2 kmh N 9.0 mph14.5 kmh 30.52 in1033.5 mb 0.00 in0.0 mm 0.00 in0.0 mm 0.00 in0.0 mm
02:35 PM 37.4°F3.0°C 34.5°F1.4°C 89% 3.0 mph N4.8 kmh N 9.0 mph14.5 kmh 30.52 in1033.5 mb 0.00 in0.0 mm 0.00 in0.0 mm 0.00 in0.0 mm
02:30 PM 37.6°F3.1°C 34.9°F1.6°C 90% 2.0 mph N3.2 kmh N 10.0 mph16.1 kmh 30.52 in1033.5 mb 0.00 in0.0 mm 0.00 in0.0 mm 0.00 in0.0 mm
02:25 PM 37.6°F3.1°C 34.9°F1.6°C 90% 2.0 mph N3.2 kmh N 10.0 mph16.1 kmh 30.53 in1033.9 mb 0.00 in0.0 mm 0.00 in0.0 mm 0.00 in0.0 mm
02:20 PM 37.8°F3.2°C 35.1°F1.7°C 90% Calm Calm 5.0 mph8.0 kmh 30.53 in1033.9 mb 0.00 in0.0 mm 0.00 in0.0 mm 0.00 in0.0 mm
02:15 PM 37.8°F3.2°C 35.1°F1.7°C 90% 1.0 mph N1.6 kmh N 6.0 mph9.7 kmh 30.53 in1033.9 mb 0.00 in0.0 mm 0.00 in0.0 mm 0.00 in0.0 mm
02:10 PM 37.6°F3.1°C 34.9°F1.6°C 90% 1.0 mph N1.6 kmh N 6.0 mph9.7 kmh 30.53 in1033.9 mb 0.00 in0.0 mm 0.00 in0.0 mm 0.00 in0.0 mm
02:05 PM 37.6°F3.1°C 34.7°F1.5°C 89% 2.0 mph N3.2 kmh N 9.0 mph14.5 kmh 30.53 in1033.9 mb 0.00 in0.0 mm 0.00 in0.0 mm 0.00 in0.0 mm
02:00 PM 37.6°F3.1°C 34.7°F1.5°C 89% 3.0 mph N4.8 kmh N 10.0 mph16.1 kmh 30.53 in1033.9 mb 0.00 in0.0 mm 0.00 in0.0 mm 0.00 in0.0 mm
01:55 PM 37.8°F3.2°C 34.5°F1.4°C 88% 5.0 mph N8.0 kmh N 13.0 mph20.9 kmh 30.53 in1033.9 mb 0.00 in0.0 mm 0.00 in0.0 mm 0.00 in0.0 mm
01:50 PM 37.9°F3.3°C 34.7°F1.5°C 88% 4.0 mph N6.4 kmh N 13.0 mph20.9 kmh 30.53 in1033.9 mb 0.00 in0.0 mm 0.00 in0.0 mm 0.00 in0.0 mm
01:45 PM 37.9°F3.3°C 34.7°F1.5°C 88% 4.0 mph N6.4 kmh N 10.0 mph16.1 kmh 30.53 in1033.9 mb 0.00 in0.0 mm 0.00 in0.0 mm 0.00 in0.0 mm
01:40 PM 37.9°F3.3°C 34.7°F1.5°C 88% 3.0 mph N4.8 kmh N 10.0 mph16.1 kmh 30.53 in1033.9 mb 0.00 in0.0 mm 0.00 in0.0 mm 0.00 in0.0 mm
01:35 PM 37.9°F3.3°C 34.9°F1.6°C 89% 3.0 mph N4.8 kmh N 10.0 mph16.1 kmh 30.53 in1033.9 mb 0.00 in0.0 mm 0.00 in0.0 mm 0.00 in0.0 mm
01:30 PM 37.9°F3.3°C 34.9°F1.6°C 89% 3.0 mph N4.8 kmh N 9.0 mph14.5 kmh 30.53 in1033.9 mb 0.00 in0.0 mm 0.00 in0.0 mm 0.00 in0.0 mm
01:25 PM 37.9°F3.3°C 35.1°F1.7°C 89% 2.0 mph NNE3.2 kmh NNE 10.0 mph16.1 kmh 30.54 in1034.2 mb 0.00 in0.0 mm 0.00 in0.0 mm 0.00 in0.0 mm
01:20 PM 37.9°F3.3°C 35.2°F1.8°C 90% 2.0 mph NNE3.2 kmh NNE 10.0 mph16.1 kmh 30.54 in1034.2 mb 0.00 in0.0 mm 0.00 in0.0 mm 0.00 in0.0 mm
01:15 PM 37.8°F3.2°C 35.1°F1.7°C 90% 2.0 mph NNE3.2 kmh NNE 9.0 mph14.5 kmh 30.54 in1034.2 mb 0.00 in0.0 mm 0.00 in0.0 mm 0.00 in0.0 mm
01:10 PM 37.8°F3.2°C 35.1°F1.7°C 90% 2.0 mph NNE3.2 kmh NNE 10.0 mph16.1 kmh 30.53 in1033.9 mb 0.00 in0.0 mm 0.00 in0.0 mm 0.00 in0.0 mm
01:05 PM 37.6°F3.1°C 34.9°F1.6°C 90% 3.0 mph NNE4.8 kmh NNE 10.0 mph16.1 kmh 30.53 in1033.9 mb 0.00 in0.0 mm 0.00 in0.0 mm 0.00 in0.0 mm
01:00 PM 37.6°F3.1°C 34.9°F1.6°C 90% 4.0 mph N6.4 kmh N 11.0 mph17.7 kmh 30.53 in1033.9 mb 0.00 in0.0 mm 0.00 in0.0 mm 0.00 in0.0 mm
12:55 PM 37.8°F3.2°C 35.1°F1.7°C 90% 5.0 mph N8.0 kmh N 13.0 mph20.9 kmh 30.54 in1034.2 mb 0.00 in0.0 mm 0.00 in0.0 mm 0.00 in0.0 mm
12:50 PM 37.8°F3.2°C 35.2°F1.8°C 91% 3.0 mph N4.8 kmh N 13.0 mph20.9 kmh 30.53 in1033.9 mb 0.00 in0.0 mm 0.00 in0.0 mm 0.00 in0.0 mm
12:45 PM 37.9°F3.3°C 35.4°F1.9°C 91% 2.0 mph N3.2 kmh N 10.0 mph16.1 kmh 30.54 in1034.2 mb 0.00 in0.0 mm 0.00 in0.0 mm 0.00 in0.0 mm
12:40 PM 37.9°F3.3°C 35.6°F2.0°C 91% 2.0 mph N3.2 kmh N 9.0 mph14.5 kmh 30.54 in1034.2 mb 0.00 in0.0 mm 0.00 in0.0 mm 0.00 in0.0 mm
12:35 PM 37.9°F3.3°C 35.6°F2.0°C 91% 2.0 mph N3.2 kmh N 8.0 mph12.9 kmh 30.54 in1034.2 mb 0.00 in0.0 mm 0.00 in0.0 mm 0.00 in0.0 mm
12:30 PM 37.9°F3.3°C 35.8°F2.1°C 92% 1.0 mph N1.6 kmh N 7.0 mph11.3 kmh 30.54 in1034.2 mb 0.00 in0.0 mm 0.00 in0.0 mm 0.00 in0.0 mm
12:25 PM 37.6°F3.1°C 35.1°F1.7°C 91% 1.0 mph N1.6 kmh N 7.0 mph11.3 kmh 30.54 in1034.2 mb 0.00 in0.0 mm 0.00 in0.0 mm 0.00 in0.0 mm
12:20 PM 37.4°F3.0°C 35.1°F1.7°C 91% 1.0 mph N1.6 kmh N 7.0 mph11.3 kmh 30.54 in1034.2 mb 0.00 in0.0 mm 0.00 in0.0 mm 0.00 in0.0 mm
12:15 PM 37.2°F2.9°C 34.9°F1.6°C 91% 1.0 mph NNE1.6 kmh NNE 7.0 mph11.3 kmh 30.54 in1034.2 mb 0.00 in0.0 mm 0.00 in0.0 mm 0.00 in0.0 mm
12:10 PM 37.2°F2.9°C 34.7°F1.5°C 90% 2.0 mph NNE3.2 kmh NNE 9.0 mph14.5 kmh 30.54 in1034.2 mb 0.00 in0.0 mm 0.00 in0.0 mm 0.00 in0.0 mm
12:05 PM 37.2°F2.9°C 34.7°F1.5°C 90% 3.0 mph NNE4.8 kmh NNE 11.0 mph17.7 kmh 30.54 in1034.2 mb 0.00 in0.0 mm 0.00 in0.0 mm 0.00 in0.0 mm
12:00 PM 37.4°F3.0°C 34.5°F1.4°C 89% 4.0 mph N6.4 kmh N 12.0 mph19.3 kmh 30.53 in1033.9 mb 0.00 in0.0 mm 0.00 in0.0 mm 0.00 in0.0 mm
11:55 AM 37.8°F3.2°C 34.7°F1.5°C 89% 4.0 mph N6.4 kmh N 12.0 mph19.3 kmh 30.53 in1033.9 mb 0.00 in0.0 mm 0.00 in0.0 mm 0.00 in0.0 mm
11:50 AM 37.8°F3.2°C 34.7°F1.5°C 89% 4.0 mph N6.4 kmh N 12.0 mph19.3 kmh 30.53 in1033.9 mb 0.00 in0.0 mm 0.00 in0.0 mm 0.00 in0.0 mm
11:45 AM 37.8°F3.2°C 34.9°F1.6°C 89% 4.0 mph N6.4 kmh N 12.0 mph19.3 kmh 30.54 in1034.2 mb 0.00 in0.0 mm 0.00 in0.0 mm 0.00 in0.0 mm
11:40 AM 37.9°F3.3°C 34.7°F1.5°C 88% 4.0 mph N6.4 kmh N 11.0 mph17.7 kmh 30.53 in1033.9 mb 0.00 in0.0 mm 0.00 in0.0 mm 0.00 in0.0 mm
11:35 AM 37.9°F3.3°C 34.7°F1.5°C 88% 3.0 mph N4.8 kmh N 11.0 mph17.7 kmh 30.54 in1034.2 mb 0.00 in0.0 mm 0.00 in0.0 mm 0.00 in0.0 mm
11:30 AM 37.9°F3.3°C 34.7°F1.5°C 88% 2.0 mph N3.2 kmh N 11.0 mph17.7 kmh 30.54 in1034.2 mb 0.00 in0.0 mm 0.00 in0.0 mm 0.00 in0.0 mm
11:25 AM 37.9°F3.3°C 34.7°F1.5°C 88% 4.0 mph N6.4 kmh N 12.0 mph19.3 kmh 30.54 in1034.2 mb 0.00 in0.0 mm 0.00 in0.0 mm 0.00 in0.0 mm
11:20 AM 37.9°F3.3°C 34.7°F1.5°C 88% 4.0 mph N6.4 kmh N 12.0 mph19.3 kmh 30.54 in1034.2 mb 0.00 in0.0 mm 0.00 in0.0 mm 0.00 in0.0 mm
11:15 AM 37.9°F3.3°C 34.7°F1.5°C 88% 4.0 mph N6.4 kmh N 11.0 mph17.7 kmh 30.54 in1034.2 mb 0.00 in0.0 mm 0.00 in0.0 mm 0.00 in0.0 mm
11:10 AM 37.9°F3.3°C 34.7°F1.5°C 88% 4.0 mph N6.4 kmh N 11.0 mph17.7 kmh 30.54 in1034.2 mb 0.00 in0.0 mm 0.00 in0.0 mm 0.00 in0.0 mm
11:05 AM 37.9°F3.3°C 34.7°F1.5°C 88% 3.0 mph N4.8 kmh N 11.0 mph17.7 kmh 30.54 in1034.2 mb 0.00 in0.0 mm 0.00 in0.0 mm 0.00 in0.0 mm
11:00 AM 37.9°F3.3°C 34.7°F1.5°C 88% 3.0 mph N4.8 kmh N 9.0 mph14.5 kmh 30.53 in1033.9 mb 0.00 in0.0 mm 0.00 in0.0 mm 0.00 in0.0 mm
10:55 AM 37.9°F3.3°C 34.7°F1.5°C 88% 3.0 mph N4.8 kmh N 11.0 mph17.7 kmh 30.53 in1033.9 mb 0.00 in0.0 mm 0.00 in0.0 mm 0.00 in0.0 mm
10:50 AM 37.8°F3.2°C 34.5°F1.4°C 88% 3.0 mph N4.8 kmh N 12.0 mph19.3 kmh 30.53 in1033.9 mb 0.00 in0.0 mm 0.00 in0.0 mm 0.00 in0.0 mm
10:45 AM 37.9°F3.3°C 34.3°F1.3°C 87% 4.0 mph N6.4 kmh N 13.0 mph20.9 kmh 30.53 in1033.9 mb 0.00 in0.0 mm 0.00 in0.0 mm 0.00 in0.0 mm
10:40 AM 37.9°F3.3°C 34.3°F1.3°C 87% 5.0 mph N8.0 kmh N 13.0 mph20.9 kmh 30.53 in1033.9 mb 0.00 in0.0 mm 0.00 in0.0 mm 0.00 in0.0 mm
10:35 AM 37.9°F3.3°C 34.3°F1.3°C 87% 5.0 mph N8.0 kmh N 13.0 mph20.9 kmh 30.53 in1033.9 mb 0.00 in0.0 mm 0.00 in0.0 mm 0.00 in0.0 mm
10:30 AM 37.9°F3.3°C 34.2°F1.2°C 86% 4.0 mph N6.4 kmh N 17.0 mph27.4 kmh 30.53 in1033.9 mb 0.00 in0.0 mm 0.00 in0.0 mm 0.00 in0.0 mm
10:25 AM 37.9°F3.3°C 34.2°F1.2°C 86% 4.0 mph N6.4 kmh N 17.0 mph27.4 kmh 30.53 in1033.9 mb 0.00 in0.0 mm 0.00 in0.0 mm 0.00 in0.0 mm
10:20 AM 37.9°F3.3°C 34.2°F1.2°C 86% 4.0 mph N6.4 kmh N 10.0 mph16.1 kmh 30.53 in1033.9 mb 0.00 in0.0 mm 0.00 in0.0 mm 0.00 in0.0 mm
10:15 AM 37.9°F3.3°C 34.0°F1.1°C 85% 4.0 mph N6.4 kmh N 10.0 mph16.1 kmh 30.53 in1033.9 mb 0.00 in0.0 mm 0.00 in0.0 mm 0.00 in0.0 mm
10:10 AM 37.9°F3.3°C 34.0°F1.1°C 85% 4.0 mph N6.4 kmh N 11.0 mph17.7 kmh 30.53 in1033.9 mb 0.00 in0.0 mm 0.00 in0.0 mm 0.00 in0.0 mm
10:05 AM 37.9°F3.3°C 34.0°F1.1°C 85% 4.0 mph N6.4 kmh N 13.0 mph20.9 kmh 30.53 in1033.9 mb 0.00 in0.0 mm 0.00 in0.0 mm 0.00 in0.0 mm
10:00 AM 37.9°F3.3°C 34.2°F1.2°C 86% 3.0 mph N4.8 kmh N 13.0 mph20.9 kmh 30.53 in1033.9 mb 0.00 in0.0 mm 0.00 in0.0 mm 0.00 in0.0 mm
09:55 AM 37.9°F3.3°C 34.2°F1.2°C 86% 4.0 mph N6.4 kmh N 12.0 mph19.3 kmh 30.52 in1033.5 mb 0.00 in0.0 mm 0.00 in0.0 mm 0.00 in0.0 mm
09:50 AM 37.8°F3.2°C 34.0°F1.1°C 86% 4.0 mph N6.4 kmh N 12.0 mph19.3 kmh 30.52 in1033.5 mb 0.00 in0.0 mm 0.00 in0.0 mm 0.00 in0.0 mm
09:45 AM 37.8°F3.2°C 34.0°F1.1°C 86% 4.0 mph N6.4 kmh N 12.0 mph19.3 kmh 30.52 in1033.5 mb 0.00 in0.0 mm 0.00 in0.0 mm 0.00 in0.0 mm
09:40 AM 37.8°F3.2°C 34.0°F1.1°C 86% 5.0 mph N8.0 kmh N 14.0 mph22.5 kmh 30.52 in1033.5 mb 0.00 in0.0 mm 0.00 in0.0 mm 0.00 in0.0 mm
09:35 AM 37.8°F3.2°C 33.8°F1.0°C 86% 6.0 mph N9.7 kmh N 14.0 mph22.5 kmh 30.52 in1033.5 mb 0.00 in0.0 mm 0.00 in0.0 mm 0.00 in0.0 mm
09:30 AM 37.8°F3.2°C 34.0°F1.1°C 86% 5.0 mph N8.0 kmh N 13.0 mph20.9 kmh 30.52 in1033.5 mb 0.00 in0.0 mm 0.00 in0.0 mm 0.00 in0.0 mm
09:25 AM 37.8°F3.2°C 34.0°F1.1°C 86% 3.0 mph N4.8 kmh N 13.0 mph20.9 kmh 30.52 in1033.5 mb 0.00 in0.0 mm 0.00 in0.0 mm 0.00 in0.0 mm
09:20 AM 37.8°F3.2°C 33.6°F0.9°C 85% 4.0 mph N6.4 kmh N 14.0 mph22.5 kmh 30.52 in1033.5 mb 0.00 in0.0 mm 0.00 in0.0 mm 0.00 in0.0 mm
09:15 AM 37.9°F3.3°C 33.8°F1.0°C 85% 5.0 mph N8.0 kmh N 14.0 mph22.5 kmh 30.52 in1033.5 mb 0.00 in0.0 mm 0.00 in0.0 mm 0.00 in0.0 mm
09:10 AM 37.8°F3.2°C 33.6°F0.9°C 85% 4.0 mph N6.4 kmh N 14.0 mph22.5 kmh 30.51 in1033.2 mb 0.00 in0.0 mm 0.00 in0.0 mm 0.00 in0.0 mm
09:05 AM 37.9°F3.3°C 33.8°F1.0°C 85% 4.0 mph N6.4 kmh N 14.0 mph22.5 kmh 30.52 in1033.5 mb 0.00 in0.0 mm 0.00 in0.0 mm 0.00 in0.0 mm
09:00 AM 37.9°F3.3°C 33.8°F1.0°C 85% 5.0 mph N8.0 kmh N 15.0 mph24.1 kmh 30.51 in1033.2 mb 0.00 in0.0 mm 0.00 in0.0 mm 0.00 in0.0 mm
08:55 AM 37.9°F3.3°C 33.8°F1.0°C 85% 4.0 mph N6.4 kmh N 15.0 mph24.1 kmh 30.51 in1033.2 mb 0.00 in0.0 mm 0.00 in0.0 mm 0.00 in0.0 mm
08:50 AM 37.9°F3.3°C 33.8°F1.0°C 85% 4.0 mph N6.4 kmh N 18.0 mph29.0 kmh 30.51 in1033.2 mb 0.00 in0.0 mm 0.00 in0.0 mm 0.00 in0.0 mm
08:45 AM 37.9°F3.3°C 33.8°F1.0°C 85% 4.0 mph N6.4 kmh N 18.0 mph29.0 kmh 30.51 in1033.2 mb 0.00 in0.0 mm 0.00 in0.0 mm 0.00 in0.0 mm
08:40 AM 37.9°F3.3°C 33.8°F1.0°C 85% 4.0 mph N6.4 kmh N 15.0 mph24.1 kmh 30.51 in1033.2 mb 0.00 in0.0 mm 0.00 in0.0 mm 0.00 in0.0 mm
08:35 AM 37.9°F3.3°C 34.0°F1.1°C 85% 5.0 mph NNE8.0 kmh NNE 14.0 mph22.5 kmh 30.51 in1033.2 mb 0.00 in0.0 mm 0.00 in0.0 mm 0.00 in0.0 mm
08:30 AM 37.9°F3.3°C 33.8°F1.0°C 85% 5.0 mph NNE8.0 kmh NNE 17.0 mph27.4 kmh 30.51 in1033.2 mb 0.00 in0.0 mm 0.00 in0.0 mm 0.00 in0.0 mm
08:25 AM 37.8°F3.2°C 33.6°F0.9°C 85% 5.0 mph NNE8.0 kmh NNE 17.0 mph27.4 kmh 30.51 in1033.2 mb 0.00 in0.0 mm 0.00 in0.0 mm 0.00 in0.0 mm
08:20 AM 37.8°F3.2°C 33.8°F1.0°C 86% 5.0 mph NNE8.0 kmh NNE 17.0 mph27.4 kmh 30.51 in1033.2 mb 0.00 in0.0 mm 0.00 in0.0 mm 0.00 in0.0 mm
08:15 AM 37.6°F3.1°C 33.6°F0.9°C 86% 5.0 mph NNE8.0 kmh NNE 17.0 mph27.4 kmh 30.51 in1033.2 mb 0.00 in0.0 mm 0.00 in0.0 mm 0.00 in0.0 mm
08:10 AM 37.4°F3.0°C 33.8°F1.0°C 87% 5.0 mph NNE8.0 kmh NNE 16.0 mph25.7 kmh 30.50 in1032.8 mb 0.00 in0.0 mm 0.00 in0.0 mm 0.00 in0.0 mm
08:05 AM 37.2°F2.9°C 34.0°F1.1°C 88% 5.0 mph NNE8.0 kmh NNE 16.0 mph25.7 kmh 30.50 in1032.8 mb 0.00 in0.0 mm 0.00 in0.0 mm 0.00 in0.0 mm
08:00 AM 36.9°F2.7°C 33.8°F1.0°C 89% 3.0 mph N4.8 kmh N 10.0 mph16.1 kmh 30.50 in1032.8 mb 0.00 in0.0 mm 0.00 in0.0 mm 0.00 in0.0 mm
07:55 AM 36.7°F2.6°C 33.6°F0.9°C 89% 2.0 mph N3.2 kmh N 10.0 mph16.1 kmh 30.50 in1032.8 mb 0.00 in0.0 mm 0.00 in0.0 mm 0.00 in0.0 mm
07:50 AM 36.5°F2.5°C 33.6°F0.9°C 89% 3.0 mph N4.8 kmh N 13.0 mph20.9 kmh 30.50 in1032.8 mb 0.00 in0.0 mm 0.00 in0.0 mm 0.00 in0.0 mm
07:45 AM 36.1°F2.3°C 33.6°F0.9°C 90% 3.0 mph N4.8 kmh N 13.0 mph20.9 kmh 30.50 in1032.8 mb 0.00 in0.0 mm 0.00 in0.0 mm 0.00 in0.0 mm
07:40 AM 36.1°F2.3°C 33.3°F0.7°C 89% 1.0 mph NNW1.6 kmh NNW 8.0 mph12.9 kmh 30.50 in1032.8 mb 0.00 in0.0 mm 0.00 in0.0 mm 0.00 in0.0 mm
07:35 AM 36.1°F2.3°C 33.3°F0.7°C 89% 1.0 mph N1.6 kmh N 8.0 mph12.9 kmh 30.50 in1032.8 mb 0.00 in0.0 mm 0.00 in0.0 mm 0.00 in0.0 mm
07:30 AM 36.1°F2.3°C 32.9°F0.5°C 88% 2.0 mph N3.2 kmh N 8.0 mph12.9 kmh 30.49 in1032.5 mb 0.00 in0.0 mm 0.00 in0.0 mm 0.00 in0.0 mm
07:25 AM 36.3°F2.4°C 33.3°F0.7°C 88% 3.0 mph N4.8 kmh N 9.0 mph14.5 kmh 30.49 in1032.5 mb 0.00 in0.0 mm 0.00 in0.0 mm 0.00 in0.0 mm
07:20 AM 36.7°F2.6°C 33.1°F0.6°C 87% 3.0 mph N4.8 kmh N 9.0 mph14.5 kmh 30.49 in1032.5 mb 0.00 in0.0 mm 0.00 in0.0 mm 0.00 in0.0 mm
07:15 AM 36.9°F2.7°C 33.1°F0.6°C 86% 2.0 mph N3.2 kmh N 9.0 mph14.5 kmh 30.49 in1032.5 mb 0.00 in0.0 mm 0.00 in0.0 mm 0.00 in0.0 mm
07:10 AM 37.0°F2.8°C 32.9°F0.5°C 85% 3.0 mph N4.8 kmh N 9.0 mph14.5 kmh 30.49 in1032.5 mb 0.00 in0.0 mm 0.00 in0.0 mm 0.00 in0.0 mm
07:05 AM 37.2°F2.9°C 32.9°F0.5°C 84% 4.0 mph N6.4 kmh N 12.0 mph19.3 kmh 30.49 in1032.5 mb 0.00 in0.0 mm 0.00 in0.0 mm 0.00 in0.0 mm
07:00 AM 37.2°F2.9°C 32.9°F0.5°C 84% 5.0 mph N8.0 kmh N 13.0 mph20.9 kmh 30.49 in1032.5 mb 0.00 in0.0 mm 0.00 in0.0 mm 0.00 in0.0 mm
06:55 AM 37.2°F2.9°C 32.9°F0.5°C 84% 5.0 mph N8.0 kmh N 13.0 mph20.9 kmh 30.49 in1032.5 mb 0.00 in0.0 mm 0.00 in0.0 mm 0.00 in0.0 mm
06:50 AM 37.0°F2.8°C 32.5°F0.3°C 84% 3.0 mph N4.8 kmh N 12.0 mph19.3 kmh 30.48 in1032.2 mb 0.00 in0.0 mm 0.00 in0.0 mm 0.00 in0.0 mm
06:45 AM 37.0°F2.8°C 32.5°F0.3°C 84% 4.0 mph N6.4 kmh N 11.0 mph17.7 kmh 30.49 in1032.5 mb 0.00 in0.0 mm 0.00 in0.0 mm 0.00 in0.0 mm
06:40 AM 36.9°F2.7°C 32.5°F0.3°C 84% 5.0 mph NNE8.0 kmh NNE 11.0 mph17.7 kmh 30.49 in1032.5 mb 0.00 in0.0 mm 0.00 in0.0 mm 0.00 in0.0 mm
06:35 AM 36.9°F2.7°C 32.4°F0.2°C 84% 5.0 mph N8.0 kmh N 13.0 mph20.9 kmh 30.49 in1032.5 mb 0.00 in0.0 mm 0.00 in0.0 mm 0.00 in0.0 mm
06:30 AM 36.7°F2.6°C 32.2°F0.1°C 84% 5.0 mph N8.0 kmh N 13.0 mph20.9 kmh 30.48 in1032.2 mb 0.00 in0.0 mm 0.00 in0.0 mm 0.00 in0.0 mm
06:25 AM 36.7°F2.6°C 32.2°F0.1°C 84% 5.0 mph N8.0 kmh N 11.0 mph17.7 kmh 30.49 in1032.5 mb 0.00 in0.0 mm 0.00 in0.0 mm 0.00 in0.0 mm
06:20 AM 36.7°F2.6°C 32.2°F0.1°C 84% 4.0 mph N6.4 kmh N 11.0 mph17.7 kmh 30.49 in1032.5 mb 0.00 in0.0 mm 0.00 in0.0 mm 0.00 in0.0 mm
06:15 AM 36.3°F2.4°C 32.0°F0.0°C 84% 3.0 mph N4.8 kmh N 9.0 mph14.5 kmh 30.49 in1032.5 mb 0.00 in0.0 mm 0.00 in0.0 mm 0.00 in0.0 mm
06:10 AM 36.3°F2.4°C 31.6°F-0.2°C 83% 2.0 mph N3.2 kmh N 8.0 mph12.9 kmh 30.49 in1032.5 mb 0.00 in0.0 mm 0.00 in0.0 mm 0.00 in0.0 mm
06:05 AM 36.3°F2.4°C 31.6°F-0.2°C 83% 2.0 mph N3.2 kmh N 8.0 mph12.9 kmh 30.49 in1032.5 mb 0.00 in0.0 mm 0.00 in0.0 mm 0.00 in0.0 mm
06:00 AM 36.3°F2.4°C 31.6°F-0.2°C 83% 3.0 mph NNE4.8 kmh NNE 10.0 mph16.1 kmh 30.49 in1032.5 mb 0.00 in0.0 mm 0.00 in0.0 mm 0.00 in0.0 mm
05:55 AM 36.3°F2.4°C 31.6°F-0.2°C 83% 3.0 mph NNE4.8 kmh NNE 10.0 mph16.1 kmh 30.49 in1032.5 mb 0.00 in0.0 mm 0.00 in0.0 mm 0.00 in0.0 mm
05:50 AM 36.3°F2.4°C 31.6°F-0.2°C 83% 4.0 mph NNE6.4 kmh NNE 12.0 mph19.3 kmh 30.49 in1032.5 mb 0.00 in0.0 mm 0.00 in0.0 mm 0.00 in0.0 mm
05:45 AM 36.1°F2.3°C 31.5°F-0.3°C 83% 5.0 mph NNE8.0 kmh NNE 12.0 mph19.3 kmh 30.49 in1032.5 mb 0.00 in0.0 mm 0.00 in0.0 mm 0.00 in0.0 mm
05:40 AM 36.1°F2.3°C 31.5°F-0.3°C 83% 5.0 mph N8.0 kmh N 12.0 mph19.3 kmh 30.49 in1032.5 mb 0.00 in0.0 mm 0.00 in0.0 mm 0.00 in0.0 mm
05:35 AM 36.0°F2.2°C 31.3°F-0.4°C 83% 3.0 mph N4.8 kmh N 11.0 mph17.7 kmh 30.49 in1032.5 mb 0.00 in0.0 mm 0.00 in0.0 mm 0.00 in0.0 mm
05:30 AM 36.0°F2.2°C 31.3°F-0.4°C 83% 3.0 mph N4.8 kmh N 10.0 mph16.1 kmh 30.49 in1032.5 mb 0.00 in0.0 mm 0.00 in0.0 mm 0.00 in0.0 mm
05:25 AM 36.0°F2.2°C 31.3°F-0.4°C 83% 3.0 mph N4.8 kmh N 15.0 mph24.1 kmh 30.50 in1032.8 mb 0.00 in0.0 mm 0.00 in0.0 mm 0.00 in0.0 mm
05:20 AM 35.8°F2.1°C 31.1°F-0.5°C 83% 3.0 mph N4.8 kmh N 15.0 mph24.1 kmh 30.50 in1032.8 mb 0.00 in0.0 mm 0.00 in0.0 mm 0.00 in0.0 mm
05:15 AM 35.8°F2.1°C 31.1°F-0.5°C 83% 3.0 mph N4.8 kmh N 13.0 mph20.9 kmh 30.50 in1032.8 mb 0.00 in0.0 mm 0.00 in0.0 mm 0.00 in0.0 mm
05:10 AM 35.8°F2.1°C 31.1°F-0.5°C 83% 4.0 mph N6.4 kmh N 13.0 mph20.9 kmh 30.50 in1032.8 mb 0.00 in0.0 mm 0.00 in0.0 mm 0.00 in0.0 mm
05:05 AM 35.8°F2.1°C 31.1°F-0.5°C 83% 5.0 mph NNE8.0 kmh NNE 13.0 mph20.9 kmh 30.49 in1032.5 mb 0.00 in0.0 mm 0.00 in0.0 mm 0.00 in0.0 mm
05:00 AM 35.6°F2.0°C 30.9°F-0.6°C 83% 5.0 mph N8.0 kmh N 13.0 mph20.9 kmh 30.49 in1032.5 mb 0.00 in0.0 mm 0.00 in0.0 mm 0.00 in0.0 mm
04:55 AM 35.4°F1.9°C 30.7°F-0.7°C 83% 4.0 mph N6.4 kmh N 13.0 mph20.9 kmh 30.50 in1032.8 mb 0.00 in0.0 mm 0.00 in0.0 mm 0.00 in0.0 mm
04:50 AM 35.2°F1.8°C 30.7°F-0.7°C 83% 3.0 mph N4.8 kmh N 10.0 mph16.1 kmh 30.50 in1032.8 mb 0.00 in0.0 mm 0.00 in0.0 mm 0.00 in0.0 mm
04:45 AM 35.2°F1.8°C 30.7°F-0.7°C 83% 2.0 mph NNE3.2 kmh NNE 10.0 mph16.1 kmh 30.49 in1032.5 mb 0.00 in0.0 mm 0.00 in0.0 mm 0.00 in0.0 mm
04:40 AM 35.2°F1.8°C 30.6°F-0.8°C 83% 3.0 mph N4.8 kmh N 13.0 mph20.9 kmh 30.50 in1032.8 mb 0.00 in0.0 mm 0.00 in0.0 mm 0.00 in0.0 mm
04:35 AM 35.1°F1.7°C 30.4°F-0.9°C 83% 4.0 mph N6.4 kmh N 13.0 mph20.9 kmh 30.50 in1032.8 mb 0.00 in0.0 mm 0.00 in0.0 mm 0.00 in0.0 mm
04:30 AM 35.1°F1.7°C 30.4°F-0.9°C 83% 2.0 mph N3.2 kmh N 13.0 mph20.9 kmh 30.50 in1032.8 mb 0.00 in0.0 mm 0.00 in0.0 mm 0.00 in0.0 mm
04:25 AM 34.9°F1.6°C 30.2°F-1.0°C 83% 1.0 mph NNE1.6 kmh NNE 8.0 mph12.9 kmh 30.50 in1032.8 mb 0.00 in0.0 mm 0.00 in0.0 mm 0.00 in0.0 mm
04:20 AM 34.9°F1.6°C 30.2°F-1.0°C 83% 1.0 mph N1.6 kmh N 9.0 mph14.5 kmh 30.50 in1032.8 mb 0.00 in0.0 mm 0.00 in0.0 mm 0.00 in0.0 mm
04:15 AM 34.9°F1.6°C 30.2°F-1.0°C 83% 2.0 mph N3.2 kmh N 9.0 mph14.5 kmh 30.50 in1032.8 mb 0.00 in0.0 mm 0.00 in0.0 mm 0.00 in0.0 mm
04:10 AM 34.7°F1.5°C 30.0°F-1.1°C 83% 2.0 mph NNE3.2 kmh NNE 8.0 mph12.9 kmh 30.50 in1032.8 mb 0.00 in0.0 mm 0.00 in0.0 mm 0.00 in0.0 mm
04:05 AM 34.5°F1.4°C 29.8°F-1.2°C 83% 3.0 mph N4.8 kmh N 10.0 mph16.1 kmh 30.50 in1032.8 mb 0.00 in0.0 mm 0.00 in0.0 mm 0.00 in0.0 mm
04:00 AM 34.3°F1.3°C 29.8°F-1.2°C 83% 2.0 mph N3.2 kmh N 10.0 mph16.1 kmh 30.50 in1032.8 mb 0.00 in0.0 mm 0.00 in0.0 mm 0.00 in0.0 mm
03:55 AM 34.3°F1.3°C 29.7°F-1.3°C 83% 1.0 mph N1.6 kmh N 5.0 mph8.0 kmh 30.50 in1032.8 mb 0.00 in0.0 mm 0.00 in0.0 mm 0.00 in0.0 mm
03:50 AM 34.2°F1.2°C 29.7°F-1.3°C 83% 1.0 mph N1.6 kmh N 6.0 mph9.7 kmh 30.50 in1032.8 mb 0.00 in0.0 mm 0.00 in0.0 mm 0.00 in0.0 mm
03:45 AM 34.2°F1.2°C 29.7°F-1.3°C 83% 1.0 mph N1.6 kmh N 7.0 mph11.3 kmh 30.50 in1032.8 mb 0.00 in0.0 mm 0.00 in0.0 mm 0.00 in0.0 mm
03:40 AM 34.2°F1.2°C 29.7°F-1.3°C 83% 2.0 mph N3.2 kmh N 13.0 mph20.9 kmh 30.50 in1032.8 mb 0.00 in0.0 mm 0.00 in0.0 mm 0.00 in0.0 mm
03:35 AM 34.2°F1.2°C 29.5°F-1.4°C 83% 3.0 mph N4.8 kmh N 14.0 mph22.5 kmh 30.50 in1032.8 mb 0.00 in0.0 mm 0.00 in0.0 mm 0.00 in0.0 mm
03:30 AM 34.0°F1.1°C 29.3°F-1.5°C 83% 2.0 mph N3.2 kmh N 14.0 mph22.5 kmh 30.50 in1032.8 mb 0.00 in0.0 mm 0.00 in0.0 mm 0.00 in0.0 mm
03:25 AM 34.0°F1.1°C 29.3°F-1.5°C 83% 1.0 mph N1.6 kmh N 8.0 mph12.9 kmh 30.50 in1032.8 mb 0.00 in0.0 mm 0.00 in0.0 mm 0.00 in0.0 mm
03:20 AM 33.8°F1.0°C 29.1°F-1.6°C 83% 1.0 mph N1.6 kmh N 8.0 mph12.9 kmh 30.50 in1032.8 mb 0.00 in0.0 mm 0.00 in0.0 mm 0.00 in0.0 mm
03:15 AM 33.8°F1.0°C 29.1°F-1.6°C 83% 2.0 mph N3.2 kmh N 9.0 mph14.5 kmh 30.50 in1032.8 mb 0.00 in0.0 mm 0.00 in0.0 mm 0.00 in0.0 mm
03:10 AM 33.8°F1.0°C 29.1°F-1.6°C 83% 3.0 mph N4.8 kmh N 12.0 mph19.3 kmh 30.50 in1032.8 mb 0.00 in0.0 mm 0.00 in0.0 mm 0.00 in0.0 mm
03:05 AM 33.6°F0.9°C 29.1°F-1.6°C 83% 4.0 mph N6.4 kmh N 18.0 mph29.0 kmh 30.50 in1032.8 mb 0.00 in0.0 mm 0.00 in0.0 mm 0.00 in0.0 mm
03:00 AM 33.6°F0.9°C 29.1°F-1.6°C 83% 4.0 mph N6.4 kmh N 18.0 mph29.0 kmh 30.50 in1032.8 mb 0.00 in0.0 mm 0.00 in0.0 mm 0.00 in0.0 mm
02:55 AM 33.6°F0.9°C 28.9°F-1.7°C 83% 4.0 mph N6.4 kmh N 16.0 mph25.7 kmh 30.49 in1032.5 mb 0.00 in0.0 mm 0.00 in0.0 mm 0.00 in0.0 mm
02:50 AM 33.4°F0.8°C 28.9°F-1.7°C 83% 4.0 mph N6.4 kmh N 16.0 mph25.7 kmh 30.50 in1032.8 mb 0.00 in0.0 mm 0.00 in0.0 mm 0.00 in0.0 mm
02:45 AM 33.4°F0.8°C 28.8°F-1.8°C 83% 4.0 mph N6.4 kmh N 14.0 mph22.5 kmh 30.49 in1032.5 mb 0.00 in0.0 mm 0.00 in0.0 mm 0.00 in0.0 mm
02:40 AM 33.4°F0.8°C 28.8°F-1.8°C 83% 4.0 mph N6.4 kmh N 12.0 mph19.3 kmh 30.50 in1032.8 mb 0.00 in0.0 mm 0.00 in0.0 mm 0.00 in0.0 mm
02:35 AM 33.3°F0.7°C 28.9°F-1.7°C 84% 4.0 mph N6.4 kmh N 15.0 mph24.1 kmh 30.50 in1032.8 mb 0.00 in0.0 mm 0.00 in0.0 mm 0.00 in0.0 mm
02:30 AM 33.3°F0.7°C 28.9°F-1.7°C 84% 5.0 mph N8.0 kmh N 15.0 mph24.1 kmh 30.50 in1032.8 mb 0.00 in0.0 mm 0.00 in0.0 mm 0.00 in0.0 mm
02:25 AM 33.1°F0.6°C 28.8°F-1.8°C 84% 4.0 mph N6.4 kmh N 13.0 mph20.9 kmh 30.49 in1032.5 mb 0.00 in0.0 mm 0.00 in0.0 mm 0.00 in0.0 mm
02:20 AM 33.1°F0.6°C 28.8°F-1.8°C 84% 4.0 mph N6.4 kmh N 15.0 mph24.1 kmh 30.49 in1032.5 mb 0.00 in0.0 mm 0.00 in0.0 mm 0.00 in0.0 mm
02:15 AM 33.1°F0.6°C 28.4°F-2.0°C 83% 6.0 mph N9.7 kmh N 18.0 mph29.0 kmh 30.49 in1032.5 mb 0.00 in0.0 mm 0.00 in0.0 mm 0.00 in0.0 mm
02:10 AM 32.9°F0.5°C 28.2°F-2.1°C 83% 6.0 mph N9.7 kmh N 18.0 mph29.0 kmh 30.49 in1032.5 mb 0.00 in0.0 mm 0.00 in0.0 mm 0.00 in0.0 mm
02:05 AM 32.7°F0.4°C 28.2°F-2.1°C 83% 6.0 mph N9.7 kmh N 17.0 mph27.4 kmh 30.49 in1032.5 mb 0.00 in0.0 mm 0.00 in0.0 mm 0.00 in0.0 mm
02:00 AM 32.7°F0.4°C 28.2°F-2.1°C 83% 6.0 mph N9.7 kmh N 17.0 mph27.4 kmh 30.49 in1032.5 mb 0.00 in0.0 mm 0.00 in0.0 mm 0.00 in0.0 mm
01:55 AM 32.7°F0.4°C 28.2°F-2.1°C 83% 6.0 mph N9.7 kmh N 17.0 mph27.4 kmh 30.49 in1032.5 mb 0.00 in0.0 mm 0.00 in0.0 mm 0.00 in0.0 mm
01:50 AM 32.7°F0.4°C 28.0°F-2.2°C 83% 5.0 mph N8.0 kmh N 17.0 mph27.4 kmh 30.50 in1032.8 mb 0.00 in0.0 mm 0.00 in0.0 mm 0.00 in0.0 mm
01:45 AM 32.5°F0.3°C 28.0°F-2.2°C 83% 4.0 mph N6.4 kmh N 17.0 mph27.4 kmh 30.50 in1032.8 mb 0.00 in0.0 mm 0.00 in0.0 mm 0.00 in0.0 mm
01:40 AM 32.5°F0.3°C 28.0°F-2.2°C 83% 4.0 mph N6.4 kmh N 16.0 mph25.7 kmh 30.50 in1032.8 mb 0.00 in0.0 mm 0.00 in0.0 mm 0.00 in0.0 mm
01:35 AM 32.7°F0.4°C 28.0°F-2.2°C 83% 6.0 mph N9.7 kmh N 18.0 mph29.0 kmh 30.50 in1032.8 mb 0.00 in0.0 mm 0.00 in0.0 mm 0.00 in0.0 mm
01:30 AM 32.5°F0.3°C 28.0°F-2.2°C 83% 6.0 mph N9.7 kmh N 18.0 mph29.0 kmh 30.50 in1032.8 mb 0.00 in0.0 mm 0.00 in0.0 mm 0.00 in0.0 mm
01:25 AM 32.7°F0.4°C 28.0°F-2.2°C 83% 4.0 mph N6.4 kmh N 16.0 mph25.7 kmh 30.50 in1032.8 mb 0.00 in0.0 mm 0.00 in0.0 mm 0.00 in0.0 mm
01:20 AM 32.5°F0.3°C 28.0°F-2.2°C 83% 4.0 mph N6.4 kmh N 15.0 mph24.1 kmh 30.49 in1032.5 mb 0.00 in0.0 mm 0.00 in0.0 mm 0.00 in0.0 mm
01:15 AM 32.5°F0.3°C 28.0°F-2.2°C 83% 6.0 mph N9.7 kmh N 19.0 mph30.6 kmh 30.49 in1032.5 mb 0.00 in0.0 mm 0.00 in0.0 mm 0.00 in0.0 mm
01:10 AM 32.5°F0.3°C 28.0°F-2.2°C 83% 6.0 mph N9.7 kmh N 19.0 mph30.6 kmh 30.49 in1032.5 mb 0.00 in0.0 mm 0.00 in0.0 mm 0.00 in0.0 mm
01:05 AM 32.5°F0.3°C 27.9°F-2.3°C 83% 6.0 mph N9.7 kmh N 16.0 mph25.7 kmh 30.49 in1032.5 mb 0.00 in0.0 mm 0.00 in0.0 mm 0.00 in0.0 mm
01:00 AM 32.5°F0.3°C 27.9°F-2.3°C 83% 6.0 mph N9.7 kmh N 15.0 mph24.1 kmh 30.49 in1032.5 mb 0.00 in0.0 mm 0.00 in0.0 mm 0.00 in0.0 mm
12:55 AM 32.5°F0.3°C 27.9°F-2.3°C 83% 7.0 mph N11.3 kmh N 16.0 mph25.7 kmh 30.49 in1032.5 mb 0.00 in0.0 mm 0.00 in0.0 mm 0.00 in0.0 mm
12:50 AM 32.4°F0.2°C 27.9°F-2.3°C 83% 5.0 mph N8.0 kmh N 16.0 mph25.7 kmh 30.49 in1032.5 mb 0.00 in0.0 mm 0.00 in0.0 mm 0.00 in0.0 mm
12:45 AM 32.4°F0.2°C 27.9°F-2.3°C 83% 5.0 mph N8.0 kmh N 15.0 mph24.1 kmh 30.49 in1032.5 mb 0.00 in0.0 mm 0.00 in0.0 mm 0.00 in0.0 mm
12:40 AM 32.4°F0.2°C 27.9°F-2.3°C 83% 5.0 mph N8.0 kmh N 15.0 mph24.1 kmh 30.49 in1032.5 mb 0.00 in0.0 mm 0.00 in0.0 mm 0.00 in0.0 mm
12:35 AM 32.4°F0.2°C 27.9°F-2.3°C 83% 5.0 mph N8.0 kmh N 15.0 mph24.1 kmh 30.49 in1032.5 mb 0.00 in0.0 mm 0.00 in0.0 mm 0.00 in0.0 mm
12:30 AM 32.5°F0.3°C 27.9°F-2.3°C 83% 5.0 mph N8.0 kmh N 17.0 mph27.4 kmh 30.49 in1032.5 mb 0.00 in0.0 mm 0.00 in0.0 mm 0.00 in0.0 mm
12:25 AM 32.5°F0.3°C 28.0°F-2.2°C 83% 6.0 mph N9.7 kmh N 17.0 mph27.4 kmh 30.49 in1032.5 mb 0.00 in0.0 mm 0.00 in0.0 mm 0.00 in0.0 mm
12:20 AM 32.5°F0.3°C 28.0°F-2.2°C 83% 6.0 mph N9.7 kmh N 15.0 mph24.1 kmh 30.49 in1032.5 mb 0.00 in0.0 mm 0.00 in0.0 mm 0.00 in0.0 mm
12:15 AM 32.5°F0.3°C 28.0°F-2.2°C 83% 5.0 mph N8.0 kmh N 15.0 mph24.1 kmh 30.49 in1032.5 mb 0.00 in0.0 mm 0.00 in0.0 mm 0.00 in0.0 mm
12:10 AM 32.5°F0.3°C 28.0°F-2.2°C 83% 5.0 mph N8.0 kmh N 14.0 mph22.5 kmh 30.49 in1032.5 mb 0.00 in0.0 mm 0.00 in0.0 mm 0.00 in0.0 mm
12:05 AM 32.5°F0.3°C 28.0°F-2.2°C 83% 5.0 mph NNE8.0 kmh NNE 13.0 mph20.9 kmh 30.49 in1032.5 mb 0.00 in0.0 mm 0.00 in0.0 mm 0.00 in0.0 mm
12:00 AM 32.5°F0.3°C 28.0°F-2.2°C 83% 6.0 mph NNE9.7 kmh NNE 14.0 mph22.5 kmh 30.49 in1032.5 mb 0.00 in0.0 mm 0.00 in0.0 mm 0.00 in0.0 mm